createdAt,value
2023-06-22T00:00:00.576Z,90.38
2023-06-22T00:02:32.657Z,90.63
2023-06-22T00:05:06.921Z,90.92
2023-06-22T00:07:35.801Z,90.75
2023-06-22T00:10:10.834Z,90.68
2023-06-22T00:12:40.333Z,90.71
2023-06-22T00:15:11.319Z,90.68
2023-06-22T00:17:50.529Z,90.57
2023-06-22T00:20:20.552Z,90.93
2023-06-22T00:22:49.939Z,90.62
2023-06-22T00:25:18.850Z,91.04
2023-06-22T00:27:48.402Z,91.18
2023-06-22T00:30:20.526Z,91.05
2023-06-22T00:32:53.361Z,91.08
2023-06-22T00:35:22.460Z,91.31
2023-06-22T00:38:01.040Z,91.69
2023-06-22T00:40:33.419Z,91.52
2023-06-22T00:43:02.550Z,91.24
2023-06-22T00:45:41.026Z,91.28
2023-06-22T00:48:11.010Z,91.59
2023-06-22T00:50:42.241Z,91.57
2023-06-22T00:53:13.622Z,91.53
2023-06-22T00:55:48.821Z,91.55
2023-06-22T00:58:22.633Z,91.31
2023-06-22T01:00:52.484Z,91.34
2023-06-22T01:03:26.935Z,91.46
2023-06-22T01:06:03.618Z,91.33
2023-06-22T01:08:45.631Z,91.23
2023-06-22T01:11:22.574Z,91.06
2023-06-22T01:14:01.514Z,90.99
2023-06-22T01:16:39.112Z,91.16
2023-06-22T01:19:31.398Z,90.87
2023-06-22T01:22:02.249Z,90.93
2023-06-22T01:24:43.063Z,91.17
2023-06-22T01:27:26.724Z,91.18
2023-06-22T01:30:00.925Z,91.67
2023-06-22T01:32:33.446Z,91.76
2023-06-22T01:35:08.954Z,92.12
2023-06-22T01:37:39.252Z,91.98
2023-06-22T01:40:10.234Z,91.75
2023-06-22T01:42:43.826Z,91.45
2023-06-22T01:45:13.809Z,91.45
2023-06-22T01:47:43.027Z,91.17
2023-06-22T01:50:13.405Z,92.00
2023-06-22T01:52:45.322Z,92.41
2023-06-22T01:55:14.551Z,92.58
2023-06-22T01:57:43.784Z,92.66
2023-06-22T02:00:19.765Z,92.41
2023-06-22T02:02:55.084Z,92.36
2023-06-22T02:05:29.528Z,92.19
2023-06-22T02:08:04.758Z,92.14
2023-06-22T02:10:35.511Z,92.40
2023-06-22T02:13:19.968Z,92.50
2023-06-22T02:15:49.676Z,92.92
2023-06-22T02:18:29.752Z,93.08
2023-06-22T02:20:59.978Z,93.15
2023-06-22T02:23:29.117Z,93.22
2023-06-22T02:25:58.248Z,93.44
2023-06-22T02:28:30.144Z,93.74
2023-06-22T02:31:00.790Z,93.71
2023-06-22T02:33:30.234Z,93.94
2023-06-22T02:35:59.481Z,94.12
2023-06-22T02:38:35.131Z,94.15
2023-06-22T02:41:11.349Z,94.16
2023-06-22T02:43:41.431Z,94.07
2023-06-22T02:46:10.411Z,94.25
2023-06-22T02:48:40.878Z,94.07
2023-06-22T02:51:13.382Z,93.75
2023-06-22T02:53:45.123Z,94.22
2023-06-22T02:56:18.318Z,94.22
2023-06-22T02:58:47.578Z,93.85
2023-06-22T03:01:16.479Z,94.27
2023-06-22T03:03:48.369Z,94.31
2023-06-22T03:06:24.486Z,94.23
2023-06-22T03:08:59.839Z,94.08
2023-06-22T03:11:35.048Z,94.22
2023-06-22T03:14:08.454Z,94.02
2023-06-22T03:16:43.283Z,94.17
2023-06-22T03:19:12.641Z,93.99
2023-06-22T03:21:41.567Z,93.94
2023-06-22T03:24:10.476Z,93.98
2023-06-22T03:26:40.703Z,93.91
2023-06-22T03:29:16.945Z,93.89
2023-06-22T03:31:48.809Z,93.94
2023-06-22T03:34:19.072Z,93.47
2023-06-22T03:36:50.887Z,93.80
2023-06-22T03:39:20.958Z,93.56
2023-06-22T03:41:52.826Z,93.69
2023-06-22T03:44:22.900Z,93.76
2023-06-22T03:47:13.108Z,93.71
2023-06-22T03:49:42.865Z,93.41
2023-06-22T03:52:12.448Z,93.68
2023-06-22T03:54:41.326Z,93.32
2023-06-22T03:57:21.232Z,93.55
2023-06-22T03:59:57.846Z,93.15
2023-06-22T04:02:29.999Z,93.42
2023-06-22T04:05:04.633Z,93.46
2023-06-22T04:07:38.783Z,93.52
2023-06-22T04:10:13.584Z,93.23
2023-06-22T04:12:45.914Z,93.15
2023-06-22T04:15:15.473Z,92.58
2023-06-22T04:17:52.524Z,92.86
2023-06-22T04:20:28.757Z,92.13
2023-06-22T04:22:58.800Z,91.77
2023-06-22T04:25:28.573Z,91.35
2023-06-22T04:27:59.751Z,91.35
2023-06-22T04:30:29.733Z,90.90
2023-06-22T04:33:04.428Z,90.81
2023-06-22T04:35:33.317Z,90.46
2023-06-22T04:38:04.234Z,90.48
2023-06-22T04:40:34.220Z,90.52
2023-06-22T04:43:07.305Z,90.92
2023-06-22T04:45:39.681Z,90.67
2023-06-22T04:48:10.327Z,90.74
2023-06-22T04:50:42.053Z,90.77
2023-06-22T04:53:13.811Z,90.26
2023-06-22T04:55:46.327Z,89.85
2023-06-22T04:58:15.304Z,90.11
2023-06-22T05:00:52.690Z,90.32
2023-06-22T05:03:22.018Z,89.99
2023-06-22T05:05:51.567Z,89.85
2023-06-22T05:08:22.109Z,89.90
2023-06-22T05:11:05.198Z,89.54
2023-06-22T05:13:35.388Z,89.65
2023-06-22T05:16:24.950Z,89.38
2023-06-22T05:18:55.895Z,88.96
2023-06-22T05:21:33.876Z,88.45
2023-06-22T05:24:05.968Z,88.50
2023-06-22T05:26:35.890Z,88.30
2023-06-22T05:29:05.048Z,87.92
2023-06-22T05:31:48.247Z,88.34
2023-06-22T05:34:17.344Z,87.87
2023-06-22T05:36:46.311Z,87.37
2023-06-22T05:39:16.046Z,87.33
2023-06-22T05:41:46.526Z,87.53
2023-06-22T05:44:17.361Z,87.20
2023-06-22T05:46:47.499Z,87.23
2023-06-22T05:49:16.955Z,87.08
2023-06-22T05:51:45.997Z,86.71
2023-06-22T05:54:18.817Z,87.08
2023-06-22T05:56:47.952Z,87.15
2023-06-22T05:59:17.186Z,86.65
2023-06-22T06:01:51.040Z,86.12
2023-06-22T06:04:20.912Z,86.47
2023-06-22T06:06:50.308Z,86.57
2023-06-22T06:09:21.832Z,85.76
2023-06-22T06:11:51.195Z,86.55
2023-06-22T06:14:20.856Z,85.27
2023-06-22T06:16:50.460Z,84.69
2023-06-22T06:19:19.331Z,85.17
2023-06-22T06:21:48.444Z,84.77
2023-06-22T06:24:17.542Z,84.83
2023-06-22T06:26:46.616Z,84.18
2023-06-22T06:29:17.090Z,83.69
2023-06-22T06:31:46.246Z,83.64
2023-06-22T06:34:15.538Z,82.26
2023-06-22T06:36:45.183Z,82.21
2023-06-22T06:39:26.003Z,81.21
2023-06-22T06:41:54.937Z,81.11
2023-06-22T06:44:26.511Z,79.41
2023-06-22T06:46:59.001Z,79.34
2023-06-22T06:49:27.955Z,77.69
2023-06-22T06:51:56.844Z,76.94
2023-06-22T06:54:25.856Z,76.78
2023-06-22T06:56:54.914Z,77.07
2023-06-22T06:59:23.879Z,76.35
2023-06-22T07:01:53.046Z,75.12
2023-06-22T07:04:22.349Z,73.87
2023-06-22T07:06:51.315Z,74.49
2023-06-22T07:09:20.341Z,73.42
2023-06-22T07:11:49.341Z,71.69
2023-06-22T07:14:21.307Z,69.23
2023-06-22T07:16:50.244Z,67.80
2023-06-22T07:19:32.212Z,66.02
2023-06-22T07:22:01.595Z,67.25
2023-06-22T07:24:30.653Z,66.34
2023-06-22T07:27:00.182Z,66.07
2023-06-22T07:29:30.432Z,67.37
2023-06-22T07:32:01.367Z,66.69
2023-06-22T07:34:31.332Z,66.59
2023-06-22T07:37:00.574Z,67.71
2023-06-22T07:39:32.397Z,67.01
2023-06-22T07:42:01.536Z,66.93
2023-06-22T07:44:30.657Z,67.95
2023-06-22T07:46:59.733Z,66.54
2023-06-22T07:49:30.455Z,67.35
2023-06-22T07:51:59.380Z,66.93
2023-06-22T07:54:31.604Z,66.68
2023-06-22T07:57:00.797Z,66.08
2023-06-22T07:59:31.980Z,64.49
2023-06-22T08:02:01.361Z,63.08
2023-06-22T08:04:31.660Z,65.54
2023-06-22T08:07:01.976Z,64.87
2023-06-22T08:09:32.148Z,65.82
2023-06-22T08:12:03.141Z,66.07
2023-06-22T08:14:33.298Z,65.37
2023-06-22T08:17:02.383Z,65.04
2023-06-22T08:19:32.069Z,64.75
2023-06-22T08:22:01.387Z,65.00
2023-06-22T08:24:32.412Z,64.28
2023-06-22T08:27:01.648Z,65.03
2023-06-22T08:29:30.709Z,66.90
2023-06-22T08:32:00.877Z,63.90
2023-06-22T08:34:29.928Z,63.73
2023-06-22T08:37:00.888Z,63.80
2023-06-22T08:39:36.062Z,63.10
2023-06-22T08:42:09.517Z,62.27
2023-06-22T08:44:41.247Z,63.11
2023-06-22T08:47:10.234Z,61.86
2023-06-22T08:49:50.797Z,60.16
2023-06-22T08:52:24.016Z,59.33
2023-06-22T08:54:53.897Z,59.01
2023-06-22T08:57:25.366Z,58.96
2023-06-22T08:59:54.409Z,58.10
2023-06-22T09:02:23.581Z,56.76
2023-06-22T09:04:56.512Z,57.20
2023-06-22T09:07:26.478Z,55.65
2023-06-22T09:09:57.105Z,55.14
2023-06-22T09:12:27.931Z,52.96
2023-06-22T09:14:59.533Z,53.28
2023-06-22T09:17:30.355Z,52.17
2023-06-22T09:19:59.602Z,51.90
2023-06-22T09:22:29.914Z,51.67
2023-06-22T09:25:00.540Z,49.56
2023-06-22T09:27:29.619Z,49.84
2023-06-22T09:29:59.374Z,48.98
2023-06-22T09:32:28.641Z,50.38
2023-06-22T09:34:57.959Z,48.46
2023-06-22T09:37:29.911Z,47.67
2023-06-22T09:39:59.054Z,46.50
2023-06-22T09:42:28.376Z,45.86
2023-06-22T09:44:57.940Z,47.02
2023-06-22T09:47:28.965Z,47.26
2023-06-22T09:50:01.227Z,47.04
2023-06-22T09:52:46.622Z,46.61
2023-06-22T09:55:26.695Z,45.28
2023-06-22T09:57:56.367Z,46.34
2023-06-22T10:00:28.127Z,46.44
2023-06-22T10:03:00.865Z,44.07
2023-06-22T10:05:32.673Z,44.70
2023-06-22T10:08:05.262Z,47.72
2023-06-22T10:10:35.152Z,45.79
2023-06-22T10:13:19.819Z,46.43
2023-06-22T10:15:51.984Z,45.72
2023-06-22T10:18:21.354Z,45.78
2023-06-22T10:20:53.769Z,44.33
2023-06-22T10:23:25.415Z,44.86
2023-06-22T10:25:57.690Z,43.81
2023-06-22T10:28:26.748Z,44.56
2023-06-22T10:30:55.854Z,45.19
2023-06-22T10:33:25.001Z,44.72
2023-06-22T10:35:53.982Z,41.91
2023-06-22T10:38:22.856Z,45.09
2023-06-22T10:40:52.090Z,44.56
2023-06-22T10:43:22.684Z,43.13
2023-06-22T10:45:54.229Z,43.88
2023-06-22T10:48:23.162Z,44.73
2023-06-22T10:50:53.794Z,44.21
2023-06-22T10:53:23.706Z,42.96
2023-06-22T10:55:56.808Z,42.83
2023-06-22T10:58:27.307Z,43.66
2023-06-22T11:00:56.419Z,44.48
2023-06-22T11:03:27.712Z,43.71
2023-06-22T11:05:57.036Z,42.60
2023-06-22T11:08:26.101Z,42.21
2023-06-22T11:10:55.047Z,43.68
2023-06-22T11:13:24.111Z,41.50
2023-06-22T11:15:55.012Z,41.29
2023-06-22T11:18:24.250Z,42.31
2023-06-22T11:20:54.312Z,40.83
2023-06-22T11:23:26.895Z,41.02
2023-06-22T11:25:56.069Z,41.77
2023-06-22T11:28:25.308Z,41.86
2023-06-22T11:30:56.207Z,40.91
2023-06-22T11:33:26.209Z,43.44
2023-06-22T11:35:58.143Z,41.92
2023-06-22T11:38:27.232Z,42.31
2023-06-22T11:40:56.834Z,41.01
2023-06-22T11:43:26.104Z,42.00
2023-06-22T11:45:56.720Z,43.01
2023-06-22T11:48:26.382Z,42.31
2023-06-22T11:50:57.258Z,42.60
2023-06-22T11:53:28.364Z,40.79
2023-06-22T11:55:58.997Z,41.98
2023-06-22T11:58:28.230Z,40.14
2023-06-22T12:00:57.714Z,39.68
2023-06-22T12:03:29.584Z,39.96
2023-06-22T12:05:59.433Z,41.13
2023-06-22T12:08:28.617Z,41.39
2023-06-22T12:10:57.571Z,41.42
2023-06-22T12:13:26.796Z,39.78
2023-06-22T12:15:55.658Z,40.79
2023-06-22T12:18:28.217Z,39.45
2023-06-22T12:20:57.199Z,40.34
2023-06-22T12:23:26.232Z,38.91
2023-06-22T12:25:56.211Z,40.63
2023-06-22T12:28:25.066Z,41.31
2023-06-22T12:30:54.117Z,40.00
2023-06-22T12:33:23.109Z,42.27
2023-06-22T12:35:52.297Z,39.42
2023-06-22T12:38:27.279Z,36.47
2023-06-22T12:40:56.614Z,37.62
2023-06-22T12:43:25.857Z,39.04
2023-06-22T12:45:55.985Z,38.71
2023-06-22T12:48:28.460Z,38.31
2023-06-22T12:50:58.322Z,39.86
2023-06-22T12:53:28.553Z,40.30
2023-06-22T12:55:57.663Z,40.41
2023-06-22T12:58:29.356Z,39.76
2023-06-22T13:00:58.785Z,39.42
2023-06-22T13:03:30.377Z,38.02
2023-06-22T13:06:00.351Z,38.69
2023-06-22T13:09:10.671Z,39.37
2023-06-22T13:11:26.343Z,37.58
2023-06-22T13:13:57.044Z,38.08
2023-06-22T13:16:26.257Z,38.08
2023-06-22T13:18:55.190Z,39.89
2023-06-22T13:21:24.187Z,39.43
2023-06-22T13:23:53.192Z,38.44
2023-06-22T13:26:22.968Z,38.83
2023-06-22T13:28:51.902Z,37.99
2023-06-22T13:31:20.854Z,38.64
2023-06-22T13:33:52.758Z,37.79
2023-06-22T13:36:24.952Z,39.52
2023-06-22T13:38:54.077Z,38.17
2023-06-22T13:41:22.998Z,38.45
2023-06-22T13:43:53.224Z,38.84
2023-06-22T13:46:26.497Z,38.58
2023-06-22T13:48:57.065Z,38.90
2023-06-22T13:51:31.746Z,37.80
2023-06-22T13:54:03.965Z,38.70
2023-06-22T13:56:41.466Z,38.45
2023-06-22T13:59:11.166Z,37.68
2023-06-22T14:01:56.262Z,36.46
2023-06-22T14:04:26.270Z,37.38
2023-06-22T14:06:58.927Z,37.36
2023-06-22T14:09:27.918Z,37.71
2023-06-22T14:11:57.237Z,37.23
2023-06-22T14:14:27.476Z,37.42
2023-06-22T14:16:56.514Z,38.58
2023-06-22T14:19:26.278Z,37.72
2023-06-22T14:21:55.638Z,37.74
2023-06-22T14:24:31.350Z,38.32
2023-06-22T14:27:03.201Z,39.61
2023-06-22T14:29:32.482Z,40.09
2023-06-22T14:32:01.714Z,38.82
2023-06-22T14:34:32.856Z,39.87
2023-06-22T14:37:04.815Z,39.38
2023-06-22T14:39:36.009Z,38.03
2023-06-22T14:42:08.321Z,39.03
2023-06-22T14:44:40.000Z,38.90
2023-06-22T14:47:09.672Z,40.22
2023-06-22T14:49:41.993Z,40.76
2023-06-22T14:52:10.858Z,38.32
2023-06-22T14:54:42.304Z,40.72
2023-06-22T14:57:11.651Z,40.35
2023-06-22T15:02:22.722Z,40.17
2023-06-22T15:04:54.278Z,39.37
2023-06-22T15:07:23.588Z,40.42
2023-06-22T15:09:52.617Z,41.93
2023-06-22T15:12:21.720Z,40.20
2023-06-22T15:14:55.846Z,40.08
2023-06-22T15:17:31.154Z,41.37
2023-06-22T15:20:00.874Z,40.54
2023-06-22T15:22:31.792Z,40.58
2023-06-22T15:25:04.338Z,40.74
2023-06-22T15:27:39.576Z,41.83
2023-06-22T15:30:10.328Z,41.44
2023-06-22T15:32:46.744Z,41.61
2023-06-22T15:35:21.153Z,41.47
2023-06-22T15:37:52.422Z,42.90
2023-06-22T15:40:21.529Z,42.25
2023-06-22T15:42:56.241Z,42.06
2023-06-22T15:45:25.879Z,41.97
2023-06-22T15:47:54.952Z,44.05
2023-06-22T15:50:23.981Z,41.29
2023-06-22T15:52:53.024Z,41.52
2023-06-22T15:55:22.256Z,41.64
2023-06-22T15:57:51.478Z,42.30
2023-06-22T16:00:21.658Z,42.99
2023-06-22T16:02:53.345Z,41.11
2023-06-22T16:05:23.421Z,41.64
2023-06-22T16:07:52.621Z,42.30
2023-06-22T16:10:21.800Z,41.92
2023-06-22T16:12:53.229Z,42.43
2023-06-22T16:15:23.445Z,42.28
2023-06-22T16:17:52.462Z,42.95
2023-06-22T16:20:22.089Z,42.59
2023-06-22T16:22:53.340Z,42.55
2023-06-22T16:25:22.956Z,43.29
2023-06-22T16:27:52.152Z,44.27
2023-06-22T16:30:21.646Z,44.21
2023-06-22T16:32:55.379Z,43.51
2023-06-22T16:35:24.667Z,43.42
2023-06-22T16:37:57.468Z,43.82
2023-06-22T16:40:30.001Z,45.07
2023-06-22T16:43:01.884Z,44.57
2023-06-22T16:45:33.208Z,44.34
2023-06-22T16:48:02.407Z,45.41
2023-06-22T16:50:36.065Z,45.02
2023-06-22T16:53:09.260Z,46.15
2023-06-22T16:55:43.122Z,46.48
2023-06-22T16:58:16.249Z,43.73
2023-06-22T17:00:46.549Z,44.75
2023-06-22T17:03:24.291Z,45.45
2023-06-22T17:06:01.364Z,45.86
2023-06-22T17:08:34.942Z,45.42
2023-06-22T17:11:04.102Z,45.10
2023-06-22T17:13:35.714Z,45.71
2023-06-22T17:16:06.537Z,46.90
2023-06-22T17:18:37.344Z,47.17
2023-06-22T17:21:24.168Z,48.47
2023-06-22T17:24:07.616Z,47.35
2023-06-22T17:26:45.882Z,47.94
2023-06-22T17:29:15.409Z,48.91
2023-06-22T17:31:47.702Z,48.88
2023-06-22T17:34:19.867Z,48.25
2023-06-22T17:36:50.039Z,49.65
2023-06-22T17:39:21.867Z,49.76
2023-06-22T17:41:58.748Z,48.27
2023-06-22T17:44:33.552Z,47.73
2023-06-22T17:47:06.024Z,48.49
2023-06-22T17:49:35.439Z,48.33
2023-06-22T17:52:08.707Z,48.67
2023-06-22T17:54:51.529Z,48.77
2023-06-22T17:57:28.996Z,49.38
2023-06-22T17:59:58.546Z,49.06
2023-06-22T18:02:28.605Z,50.57
2023-06-22T18:05:05.766Z,50.28
2023-06-22T18:07:37.311Z,50.60
2023-06-22T18:10:13.197Z,51.04
2023-06-22T18:12:44.034Z,51.24
2023-06-22T18:15:15.589Z,51.31
2023-06-22T18:17:44.890Z,53.87
2023-06-22T18:20:15.431Z,52.25
2023-06-22T18:22:45.100Z,53.47
2023-06-22T18:25:17.898Z,53.35
2023-06-22T18:27:51.226Z,54.07
2023-06-22T18:30:21.501Z,54.91
2023-06-22T18:32:51.578Z,56.57
2023-06-22T18:35:21.035Z,54.81
2023-06-22T18:37:51.880Z,55.98
2023-06-22T18:40:20.987Z,56.96
2023-06-22T18:42:50.042Z,56.85
2023-06-22T18:45:28.675Z,57.09
2023-06-22T18:48:08.339Z,58.96
2023-06-22T18:50:43.285Z,58.63
2023-06-22T18:53:19.003Z,58.40
2023-06-22T18:55:55.644Z,58.95
2023-06-22T18:58:26.655Z,58.69
2023-06-22T19:01:19.534Z,59.19
2023-06-22T19:03:52.696Z,58.93
2023-06-22T19:06:59.633Z,59.45
2023-06-22T19:09:37.543Z,60.08
2023-06-22T19:12:26.163Z,60.94
2023-06-22T19:15:20.288Z,61.14
2023-06-22T19:17:49.988Z,61.30
2023-06-22T19:20:24.113Z,62.38
2023-06-22T19:23:01.057Z,63.29
2023-06-22T19:25:34.400Z,64.16
2023-06-22T19:28:11.691Z,63.67
2023-06-22T19:30:44.691Z,64.19
2023-06-22T19:33:16.273Z,64.33
2023-06-22T19:35:45.434Z,63.72
2023-06-22T19:38:18.166Z,62.50
2023-06-22T19:40:47.933Z,63.27
2023-06-22T19:43:17.845Z,65.56
2023-06-22T19:45:52.466Z,63.89
2023-06-22T19:48:31.702Z,63.77
2023-06-22T19:51:06.820Z,65.35
2023-06-22T19:53:41.477Z,65.38
2023-06-22T19:56:10.716Z,64.51
2023-06-22T19:58:42.006Z,64.51
2023-06-22T20:01:11.162Z,66.79
2023-06-22T20:03:47.519Z,65.03
2023-06-22T20:06:21.624Z,64.94
2023-06-22T20:08:58.831Z,64.57
2023-06-22T20:11:31.692Z,66.16
2023-06-22T20:14:01.769Z,65.54
2023-06-22T20:16:48.291Z,66.39
2023-06-22T20:19:17.200Z,66.33
2023-06-22T20:21:47.446Z,66.65
2023-06-22T20:24:19.728Z,66.91
2023-06-22T20:26:49.076Z,66.63
2023-06-22T20:29:32.079Z,66.28
2023-06-22T20:32:11.044Z,66.05
2023-06-22T20:34:45.354Z,66.91
2023-06-22T20:37:15.574Z,68.37
2023-06-22T20:39:48.999Z,68.09
2023-06-22T20:42:19.216Z,67.95
2023-06-22T20:44:56.015Z,67.98
2023-06-22T20:47:25.095Z,67.64
2023-06-22T20:50:00.201Z,67.93
2023-06-22T20:52:29.901Z,67.91
2023-06-22T20:55:03.416Z,68.01
2023-06-22T20:57:34.908Z,68.03
2023-06-22T21:00:10.432Z,68.70
2023-06-22T21:03:02.311Z,68.61
2023-06-22T21:05:32.664Z,69.90
2023-06-22T21:08:02.319Z,70.42
2023-06-22T21:10:33.106Z,71.40
2023-06-22T21:13:02.625Z,71.16
2023-06-22T21:15:32.083Z,71.62
2023-06-22T21:18:04.796Z,71.58
2023-06-22T21:20:37.574Z,71.95
2023-06-22T21:23:07.415Z,71.99
2023-06-22T21:25:42.283Z,71.72
2023-06-22T21:28:11.190Z,72.52
2023-06-22T21:30:42.481Z,72.09
2023-06-22T21:33:11.407Z,73.21
2023-06-22T21:35:42.580Z,72.90
2023-06-22T21:38:20.268Z,74.04
2023-06-22T21:40:52.778Z,74.21
2023-06-22T21:43:27.486Z,73.74
2023-06-22T21:45:59.537Z,73.88
2023-06-22T21:48:29.582Z,73.61
2023-06-22T21:51:00.765Z,73.34
2023-06-22T21:53:32.833Z,74.61
2023-06-22T21:56:11.631Z,74.18
2023-06-22T21:58:41.962Z,74.51
2023-06-22T22:01:11.047Z,74.22
2023-06-22T22:03:43.730Z,74.64
2023-06-22T22:06:12.716Z,74.67
2023-06-22T22:08:43.211Z,74.46
2023-06-22T22:11:14.623Z,74.63
2023-06-22T22:13:43.678Z,74.23
2023-06-22T22:16:12.536Z,73.94
2023-06-22T22:18:47.469Z,74.57
2023-06-22T22:21:21.839Z,74.11
2023-06-22T22:23:52.294Z,74.69
2023-06-22T22:26:23.200Z,75.13
2023-06-22T22:28:57.015Z,74.78
2023-06-22T22:31:39.924Z,74.86
2023-06-22T22:34:10.700Z,75.65
2023-06-22T22:36:43.240Z,75.02
2023-06-22T22:39:29.968Z,75.68
2023-06-22T22:42:02.535Z,75.55
2023-06-22T22:44:32.223Z,74.73
2023-06-22T22:47:01.770Z,74.09
2023-06-22T22:49:32.092Z,74.33
2023-06-22T22:52:02.895Z,74.84
2023-06-22T22:54:31.916Z,74.51
2023-06-22T22:57:04.495Z,74.56
2023-06-22T22:59:33.305Z,74.42
2023-06-22T23:02:04.557Z,75.01
2023-06-22T23:04:36.817Z,74.40
2023-06-22T23:07:06.984Z,74.54
2023-06-22T23:09:36.032Z,75.26
2023-06-22T23:12:08.193Z,75.36
2023-06-22T23:14:38.187Z,73.91
2023-06-22T23:17:09.170Z,74.66
2023-06-22T23:19:40.574Z,74.78
2023-06-22T23:22:11.046Z,74.74
2023-06-22T23:24:48.131Z,74.11
2023-06-22T23:27:17.282Z,74.45
2023-06-22T23:29:47.317Z,74.40
2023-06-22T23:32:16.334Z,74.82
2023-06-22T23:34:45.340Z,74.66
2023-06-22T23:37:15.845Z,75.51
2023-06-22T23:39:47.063Z,74.13
2023-06-22T23:42:16.304Z,74.04
2023-06-22T23:44:46.346Z,74.53
2023-06-22T23:47:22.985Z,74.32
2023-06-22T23:49:52.044Z,74.29
2023-06-22T23:52:22.290Z,74.33
2023-06-22T23:54:51.787Z,74.23
2023-06-22T23:57:25.935Z,74.25
2023-06-22T23:59:55.391Z,74.72
